createdAt,value
2023-06-15T00:01:05.834Z,101099.25
2023-06-15T00:03:33.398Z,101106.53
2023-06-15T00:06:00.839Z,101109.63
2023-06-15T00:08:28.269Z,101110.72
2023-06-15T00:10:55.617Z,101104.44
2023-06-15T00:13:22.779Z,101104.50
2023-06-15T00:15:49.925Z,101109.81
2023-06-15T00:18:18.637Z,101106.31
2023-06-15T00:20:46.456Z,101107.47
2023-06-15T00:23:13.767Z,101116.72
2023-06-15T00:25:40.875Z,101110.66
2023-06-15T00:29:04.094Z,101111.50
2023-06-15T00:31:31.352Z,101115.09
2023-06-15T00:33:58.642Z,101116.44
2023-06-15T00:36:25.842Z,101111.31
2023-06-15T00:38:52.992Z,101115.13
2023-06-15T00:41:20.174Z,101106.03
2023-06-15T00:43:47.331Z,101118.50
2023-06-15T00:46:16.068Z,101103.81
2023-06-15T00:48:43.450Z,101102.56
2023-06-15T00:51:13.174Z,101100.09
2023-06-15T00:53:40.384Z,101108.19
2023-06-15T00:56:08.191Z,101111.91
2023-06-15T00:58:36.828Z,101109.41
2023-06-15T01:01:04.347Z,101110.16
2023-06-15T01:03:32.361Z,101116.69
2023-06-15T01:06:01.085Z,101111.84
2023-06-15T01:08:28.949Z,101112.88
2023-06-15T01:10:57.404Z,101111.38
2023-06-15T01:13:24.684Z,101111.56
2023-06-15T01:15:57.547Z,101114.53
2023-06-15T01:18:26.970Z,101109.91
2023-06-15T01:20:55.010Z,101113.31
2023-06-15T01:23:52.002Z,101105.78
2023-06-15T01:26:25.141Z,101104.97
2023-06-15T01:28:54.104Z,101108.06
2023-06-15T01:31:21.530Z,101105.16
2023-06-15T01:33:51.877Z,101099.75
2023-06-15T01:36:20.763Z,101103.53
2023-06-15T01:38:53.435Z,101104.56
2023-06-15T01:41:24.218Z,101098.41
2023-06-15T01:43:52.832Z,101103.38
2023-06-15T01:46:22.673Z,101105.03
2023-06-15T01:48:50.958Z,101100.41
2023-06-15T01:51:19.887Z,101097.28
2023-06-15T01:53:47.200Z,101090.34
2023-06-15T01:56:15.806Z,101094.31
2023-06-15T01:58:42.957Z,101097.59
2023-06-15T02:01:10.079Z,101091.34
2023-06-15T02:03:37.324Z,101090.88
2023-06-15T02:06:04.474Z,101094.41
2023-06-15T02:08:31.710Z,101088.00
2023-06-15T02:10:58.927Z,101088.06
2023-06-15T02:13:26.154Z,101090.81
2023-06-15T02:15:53.314Z,101093.47
2023-06-15T02:18:20.540Z,101086.66
2023-06-15T02:20:47.775Z,101090.72
2023-06-15T02:23:15.074Z,101087.66
2023-06-15T02:25:42.304Z,101089.63
2023-06-15T02:28:09.520Z,101091.84
2023-06-15T02:30:36.670Z,101082.00
2023-06-15T02:33:05.409Z,101083.13
2023-06-15T02:35:32.691Z,101083.22
2023-06-15T02:37:59.852Z,101083.81
2023-06-15T02:40:26.936Z,101079.22
2023-06-15T02:42:56.191Z,101084.81
2023-06-15T02:45:23.540Z,101078.09
2023-06-15T02:47:50.780Z,101079.22
2023-06-15T02:50:19.061Z,101085.66
2023-06-15T02:52:46.856Z,101088.22
2023-06-15T02:55:14.702Z,101081.97
2023-06-15T02:57:42.756Z,101086.19
2023-06-15T03:00:14.929Z,101071.63
2023-06-15T03:02:51.363Z,101088.75
2023-06-15T03:05:19.636Z,101087.66
2023-06-15T03:07:47.616Z,101083.38
2023-06-15T03:10:14.852Z,101087.31
2023-06-15T03:12:42.034Z,101083.22
2023-06-15T03:15:10.602Z,101088.47
2023-06-15T03:17:37.822Z,101087.50
2023-06-15T03:20:08.891Z,101088.31
2023-06-15T03:22:36.428Z,101086.44
2023-06-15T03:25:04.178Z,101089.31
2023-06-15T03:27:33.775Z,101091.63
2023-06-15T03:30:02.693Z,101093.63
2023-06-15T03:32:30.398Z,101100.09
2023-06-15T03:34:58.534Z,101093.97
2023-06-15T03:37:26.083Z,101094.28
2023-06-15T03:39:53.238Z,101101.31
2023-06-15T03:42:20.576Z,101097.75
2023-06-15T03:44:47.852Z,101093.69
2023-06-15T03:47:15.489Z,101088.63
2023-06-15T03:49:42.735Z,101097.69
2023-06-15T03:52:09.920Z,101091.16
2023-06-15T03:54:37.162Z,101088.72
2023-06-15T03:57:04.671Z,101093.34
2023-06-15T03:59:31.924Z,101092.47
2023-06-15T04:01:59.316Z,101095.03
2023-06-15T04:04:26.425Z,101096.31
2023-06-15T04:06:58.887Z,101091.31
2023-06-15T04:09:26.039Z,101095.94
2023-06-15T04:11:54.358Z,101092.63
2023-06-15T04:14:21.531Z,101098.41
2023-06-15T04:16:48.685Z,101094.47
2023-06-15T04:19:17.123Z,101093.63
2023-06-15T04:21:44.900Z,101094.84
2023-06-15T04:24:12.202Z,101098.16
2023-06-15T04:26:43.017Z,101098.91
2023-06-15T04:29:10.616Z,101098.19
2023-06-15T04:31:41.163Z,101106.06
2023-06-15T04:34:08.999Z,101099.91
2023-06-15T04:36:40.196Z,101102.56
2023-06-15T04:39:07.397Z,101103.06
2023-06-15T04:41:36.372Z,101103.84
2023-06-15T04:44:03.619Z,101093.13
2023-06-15T04:46:30.996Z,101099.13
2023-06-15T04:48:58.546Z,101110.91
2023-06-15T04:51:27.584Z,101105.13
2023-06-15T04:53:55.813Z,101105.56
2023-06-15T04:56:23.850Z,101104.72
2023-06-15T04:58:51.521Z,101094.28
2023-06-15T05:01:18.661Z,101096.94
2023-06-15T05:03:46.773Z,101095.94
2023-06-15T05:06:14.238Z,101106.53
2023-06-15T05:08:41.422Z,101103.22
2023-06-15T05:11:08.594Z,101111.84
2023-06-15T05:13:35.816Z,101106.06
2023-06-15T05:16:03.106Z,101102.91
2023-06-15T05:18:30.294Z,101101.91
2023-06-15T05:20:57.665Z,101104.22
2023-06-15T05:23:24.810Z,101108.22
2023-06-15T05:25:52.708Z,101104.72
2023-06-15T05:28:20.620Z,101105.53
2023-06-15T05:30:47.780Z,101112.50
2023-06-15T05:33:15.082Z,101114.72
2023-06-15T05:35:42.322Z,101106.56
2023-06-15T05:38:10.484Z,101112.22
2023-06-15T05:40:37.859Z,101123.47
2023-06-15T05:43:05.264Z,101120.47
2023-06-15T05:45:32.406Z,101120.47
2023-06-15T05:47:59.923Z,101109.53
2023-06-15T05:50:27.044Z,101110.06
2023-06-15T05:52:54.167Z,101116.25
2023-06-15T05:55:24.682Z,101123.00
2023-06-15T05:57:52.122Z,101115.66
2023-06-15T06:00:20.131Z,101113.63
2023-06-15T06:02:50.448Z,101113.56
2023-06-15T06:05:17.908Z,101111.13
2023-06-15T06:07:48.476Z,101123.41
2023-06-15T06:10:19.827Z,101116.53
2023-06-15T06:12:47.255Z,101121.13
2023-06-15T06:15:16.807Z,101115.16
2023-06-15T06:17:59.314Z,101124.75
2023-06-15T06:20:30.759Z,101126.16
2023-06-15T06:22:58.025Z,101123.09
2023-06-15T06:25:25.580Z,101123.66
2023-06-15T06:27:52.690Z,101123.41
2023-06-15T06:30:19.933Z,101127.28
2023-06-15T06:32:47.151Z,101119.91
2023-06-15T06:35:14.646Z,101122.34
2023-06-15T06:37:42.001Z,101123.94
2023-06-15T06:40:10.079Z,101133.88
2023-06-15T06:42:37.261Z,101126.75
2023-06-15T06:45:05.088Z,101127.06
2023-06-15T06:47:32.279Z,101127.22
2023-06-15T06:50:02.292Z,101127.88
2023-06-15T06:52:29.448Z,101133.09
2023-06-15T06:54:56.602Z,101131.47
2023-06-15T06:57:25.429Z,101139.31
2023-06-15T06:59:54.432Z,101132.47
2023-06-15T07:02:21.623Z,101132.03
2023-06-15T07:04:49.483Z,101135.06
2023-06-15T07:07:16.783Z,101136.16
2023-06-15T07:09:43.954Z,101131.22
2023-06-15T07:12:11.527Z,101138.97
2023-06-15T07:14:38.738Z,101140.00
2023-06-15T07:17:06.272Z,101132.41
2023-06-15T07:19:33.420Z,101127.31
2023-06-15T07:22:00.621Z,101130.69
2023-06-15T07:24:29.227Z,101132.03
2023-06-15T07:26:57.687Z,101128.63
2023-06-15T07:29:26.059Z,101131.53
2023-06-15T07:31:53.526Z,101126.19
2023-06-15T07:34:20.811Z,101122.59
2023-06-15T07:36:48.218Z,101124.50
2023-06-15T07:39:15.557Z,101123.28
2023-06-15T07:41:45.689Z,101121.03
2023-06-15T07:44:13.677Z,101118.19
2023-06-15T07:46:41.617Z,101122.72
2023-06-15T07:49:08.952Z,101116.53
2023-06-15T07:51:43.422Z,101120.50
2023-06-15T07:54:18.640Z,101118.22
2023-06-15T07:56:46.542Z,101116.97
2023-06-15T07:59:15.436Z,101112.41
2023-06-15T08:01:43.719Z,101116.31
2023-06-15T08:04:11.135Z,101109.63
2023-06-15T08:06:41.304Z,101110.00
2023-06-15T08:09:08.485Z,101111.47
2023-06-15T08:11:35.625Z,101106.84
2023-06-15T08:14:02.942Z,101113.34
2023-06-15T08:16:30.045Z,101104.31
2023-06-15T08:18:57.190Z,101102.91
2023-06-15T08:21:24.513Z,101111.72
2023-06-15T08:23:52.080Z,101111.75
2023-06-15T08:26:19.199Z,101111.19
2023-06-15T08:28:54.196Z,101108.19
2023-06-15T08:31:24.063Z,101112.16
2023-06-15T08:33:51.352Z,101107.53
2023-06-15T08:36:18.626Z,101113.53
2023-06-15T08:38:46.080Z,101115.19
2023-06-15T08:41:13.825Z,101117.97
2023-06-15T08:43:46.492Z,101116.34
2023-06-15T08:46:14.284Z,101116.75
2023-06-15T08:48:44.262Z,101118.53
2023-06-15T08:51:13.685Z,101110.31
2023-06-15T08:53:49.131Z,101120.88
2023-06-15T08:56:16.467Z,101125.94
2023-06-15T08:58:50.763Z,101122.25
2023-06-15T09:01:26.584Z,101126.63
2023-06-15T09:03:56.366Z,101115.22
2023-06-15T09:06:24.707Z,101111.13
2023-06-15T09:08:55.268Z,101121.31
2023-06-15T09:11:24.618Z,101130.38
2023-06-15T09:13:52.210Z,101128.31
2023-06-15T09:16:19.887Z,101128.19
2023-06-15T09:18:54.210Z,101126.13
2023-06-15T09:21:24.290Z,101124.88
2023-06-15T09:23:51.854Z,101126.97
2023-06-15T09:26:28.944Z,101131.03
2023-06-15T09:28:58.542Z,101134.66
2023-06-15T09:31:49.129Z,101134.41
2023-06-15T09:34:16.292Z,101136.94
2023-06-15T09:36:49.259Z,101132.59
2023-06-15T09:39:24.574Z,101125.78
2023-06-15T09:41:53.491Z,101133.63
2023-06-15T09:44:24.532Z,101129.38
2023-06-15T09:46:53.692Z,101122.91
2023-06-15T09:49:27.934Z,101120.06
2023-06-15T09:51:57.043Z,101126.47
2023-06-15T09:54:31.858Z,101124.34
2023-06-15T09:57:02.460Z,101121.28
2023-06-15T09:59:29.794Z,101118.34
2023-06-15T10:02:00.431Z,101125.88
2023-06-15T10:04:33.045Z,101119.59
2023-06-15T10:07:04.604Z,101118.97
2023-06-15T10:09:46.684Z,101123.13
2023-06-15T10:12:28.545Z,101114.63
2023-06-15T10:15:10.259Z,101118.56
2023-06-15T10:17:42.197Z,101112.59
2023-06-15T10:20:18.906Z,101122.09
2023-06-15T10:23:08.604Z,101114.84
2023-06-15T10:25:37.455Z,101114.84
2023-06-15T10:28:10.913Z,101108.28
2023-06-15T10:31:08.681Z,101118.63
2023-06-15T10:34:08.524Z,101120.59
2023-06-15T10:36:52.921Z,101118.00
2023-06-15T10:39:33.470Z,101109.81
2023-06-15T10:42:06.393Z,101108.56
2023-06-15T10:44:34.635Z,101111.00
2023-06-15T10:47:21.231Z,101107.09
2023-06-15T10:49:57.249Z,101104.94
2023-06-15T10:52:34.184Z,101104.13
2023-06-15T10:55:07.142Z,101105.25
2023-06-15T10:57:37.281Z,101101.81
2023-06-15T11:00:05.987Z,101110.13
2023-06-15T11:02:33.037Z,101102.66
2023-06-15T11:05:13.549Z,101092.13
2023-06-15T11:07:48.386Z,101095.44
2023-06-15T11:10:38.468Z,101102.66
2023-06-15T11:13:07.148Z,101099.28
2023-06-15T11:15:37.839Z,101092.53
2023-06-15T11:18:18.756Z,101089.25
2023-06-15T11:20:55.802Z,101085.50
2023-06-15T11:23:25.410Z,101081.97
2023-06-15T11:25:55.503Z,101082.78
2023-06-15T11:28:37.611Z,101085.09
2023-06-15T11:31:09.540Z,101071.44
2023-06-15T11:33:43.637Z,101080.63
2023-06-15T11:36:12.552Z,101060.16
2023-06-15T11:38:39.783Z,101056.19
2023-06-15T11:41:12.241Z,101060.13
2023-06-15T11:43:50.449Z,101043.72
2023-06-15T11:46:23.647Z,101052.78
2023-06-15T11:48:57.275Z,101048.53
2023-06-15T11:51:24.991Z,101045.88
2023-06-15T11:53:54.585Z,101049.06
2023-06-15T11:56:23.072Z,101047.28
2023-06-15T11:58:51.444Z,101044.34
2023-06-15T12:01:19.692Z,101046.28
2023-06-15T12:06:22.964Z,101040.66
2023-06-15T12:08:56.016Z,101030.00
2023-06-15T12:11:27.156Z,101034.19
2023-06-15T12:14:00.416Z,101035.53
2023-06-15T12:16:27.985Z,101033.41
2023-06-15T12:18:56.416Z,101034.19
2023-06-15T12:21:23.768Z,101028.75
2023-06-15T12:23:52.245Z,101030.09
2023-06-15T12:26:21.753Z,101023.50
2023-06-15T12:28:53.252Z,101021.31
2023-06-15T12:31:20.370Z,101013.84
2023-06-15T12:33:54.560Z,101025.63
2023-06-15T12:36:23.610Z,101031.34
2023-06-15T12:38:51.164Z,101022.72
2023-06-15T12:41:19.469Z,101023.59
2023-06-15T12:43:46.774Z,101017.31
2023-06-15T12:46:14.250Z,101018.03
2023-06-15T12:48:41.632Z,101013.72
2023-06-15T12:51:08.774Z,101019.50
2023-06-15T12:53:38.255Z,101015.16
2023-06-15T12:56:06.909Z,101018.88
2023-06-15T12:58:34.110Z,101007.78
2023-06-15T13:01:01.603Z,100999.91
2023-06-15T13:03:28.996Z,101000.09
2023-06-15T13:05:56.327Z,100993.41
2023-06-15T13:08:23.478Z,100990.72
2023-06-15T13:10:50.652Z,100998.44
2023-06-15T13:13:18.245Z,100987.50
2023-06-15T13:15:46.543Z,100984.84
2023-06-15T13:18:15.028Z,100973.34
2023-06-15T13:20:42.328Z,100979.19
2023-06-15T13:23:09.743Z,100977.81
2023-06-15T13:25:36.940Z,100967.84
2023-06-15T13:28:04.338Z,100960.16
2023-06-15T13:30:31.468Z,100959.97
2023-06-15T13:32:58.772Z,100959.06
2023-06-15T13:35:26.022Z,100962.78
2023-06-15T13:37:53.231Z,100952.72
2023-06-15T13:40:22.773Z,100967.06
2023-06-15T13:42:49.991Z,100966.47
2023-06-15T13:45:19.094Z,100978.13
2023-06-15T13:47:47.202Z,100978.94
2023-06-15T13:50:18.365Z,100985.75
2023-06-15T13:52:48.115Z,100994.66
2023-06-15T13:55:17.693Z,100998.03
2023-06-15T13:57:46.831Z,101004.22
2023-06-15T14:00:15.836Z,101004.69
2023-06-15T14:02:44.430Z,101011.00
2023-06-15T14:05:13.794Z,101006.91
2023-06-15T14:07:41.479Z,101000.06
2023-06-15T14:10:10.048Z,100997.69
2023-06-15T14:12:37.822Z,100981.22
2023-06-15T14:15:07.827Z,100991.09
2023-06-15T14:17:35.412Z,100990.50
2023-06-15T14:20:03.771Z,100980.66
2023-06-15T14:22:31.858Z,100980.81
2023-06-15T14:24:59.369Z,100986.84
2023-06-15T14:27:34.871Z,100983.97
2023-06-15T14:30:02.282Z,100984.16
2023-06-15T14:32:32.530Z,100986.53
2023-06-15T14:35:02.208Z,100980.56
2023-06-15T14:37:30.051Z,100976.63
2023-06-15T14:39:57.392Z,100973.91
2023-06-15T14:42:31.781Z,100973.88
2023-06-15T14:44:59.243Z,100972.13
2023-06-15T14:47:27.262Z,100972.63
2023-06-15T14:49:54.737Z,100968.16
2023-06-15T14:52:21.984Z,100962.75
2023-06-15T14:54:49.180Z,100970.16
2023-06-15T14:57:16.423Z,100961.00
2023-06-15T14:59:43.775Z,100966.22
2023-06-15T15:02:11.082Z,100973.22
2023-06-15T15:04:38.530Z,100972.00
2023-06-15T15:07:05.865Z,100966.03
2023-06-15T15:09:33.002Z,100960.84
2023-06-15T15:12:00.468Z,100960.03
2023-06-15T15:14:27.581Z,100954.78
2023-06-15T15:16:55.667Z,100956.84
2023-06-15T15:19:23.117Z,100960.16
2023-06-15T15:21:50.867Z,100957.28
2023-06-15T15:24:18.261Z,100951.91
2023-06-15T15:26:45.677Z,100951.59
2023-06-15T15:29:13.178Z,100953.53
2023-06-15T15:31:40.574Z,100952.63
2023-06-15T15:34:08.026Z,100945.38
2023-06-15T15:36:38.461Z,100948.47
2023-06-15T15:39:05.970Z,100956.81
2023-06-15T15:41:36.138Z,100953.44
2023-06-15T15:44:03.393Z,100946.94
2023-06-15T15:46:30.732Z,100955.81
2023-06-15T15:48:57.900Z,100949.44
2023-06-15T15:51:26.382Z,100953.38
2023-06-15T15:53:53.571Z,100964.56
2023-06-15T15:56:20.738Z,100959.03
2023-06-15T15:58:47.932Z,100961.22
2023-06-15T16:01:17.076Z,100957.06
2023-06-15T16:03:44.525Z,100952.75
2023-06-15T16:06:11.898Z,100961.63
2023-06-15T16:08:39.113Z,100958.16
2023-06-15T16:11:06.290Z,100956.72
2023-06-15T16:13:33.504Z,100946.13
2023-06-15T16:16:20.933Z,100949.44
2023-06-15T16:18:49.505Z,100945.88
2023-06-15T16:21:16.705Z,100948.41
2023-06-15T16:23:47.141Z,100955.41
2023-06-15T16:26:14.340Z,100962.25
2023-06-15T16:28:41.588Z,100962.22
2023-06-15T16:31:08.835Z,100972.25
2023-06-15T16:33:35.990Z,100956.50
2023-06-15T16:36:03.257Z,100958.22
2023-06-15T16:38:30.476Z,100949.69
2023-06-15T16:40:57.730Z,100944.31
2023-06-15T16:43:24.792Z,100945.41
2023-06-15T16:45:52.190Z,100948.16
2023-06-15T16:48:19.393Z,100941.53
2023-06-15T16:50:46.661Z,100942.66
2023-06-15T16:53:14.041Z,100948.88
2023-06-15T16:55:41.395Z,100943.69
2023-06-15T16:58:08.584Z,100938.66
2023-06-15T17:00:36.068Z,100939.22
2023-06-15T17:03:03.941Z,100931.00
2023-06-15T17:05:31.402Z,100935.31
2023-06-15T17:07:58.508Z,100935.22
2023-06-15T17:10:25.732Z,100939.38
2023-06-15T17:12:52.843Z,100943.94
2023-06-15T17:15:20.158Z,100934.25
2023-06-15T17:17:47.397Z,100937.34
2023-06-15T17:20:14.587Z,100942.00
2023-06-15T17:22:42.274Z,100941.47
2023-06-15T17:25:10.319Z,100940.59
2023-06-15T17:27:37.698Z,100955.00
2023-06-15T17:30:06.137Z,100953.56
2023-06-15T17:32:33.942Z,100963.03
2023-06-15T17:35:01.106Z,100956.84
2023-06-15T17:37:28.272Z,100957.16
2023-06-15T17:39:55.447Z,100955.97
2023-06-15T17:42:22.569Z,100963.97
2023-06-15T17:44:49.820Z,100961.00
2023-06-15T17:47:16.960Z,100966.84
2023-06-15T17:49:44.121Z,100966.84
2023-06-15T17:52:11.308Z,100966.38
2023-06-15T17:54:38.694Z,100965.25
2023-06-15T17:57:06.287Z,100962.97
2023-06-15T17:59:35.250Z,100963.22
2023-06-15T18:02:03.843Z,100963.03
2023-06-15T18:04:30.974Z,100963.41
2023-06-15T18:06:58.100Z,100971.00
2023-06-15T18:09:25.424Z,100963.47
2023-06-15T18:11:52.554Z,100965.25
2023-06-15T18:14:19.779Z,100959.88
2023-06-15T18:16:46.978Z,100960.31
2023-06-15T18:19:14.256Z,100964.56
2023-06-15T18:21:41.769Z,100960.94
2023-06-15T18:24:12.624Z,100968.59
2023-06-15T18:26:48.354Z,100955.81
2023-06-15T18:29:17.217Z,100960.56
2023-06-15T18:31:45.257Z,100959.72
2023-06-15T18:34:16.287Z,100961.72
2023-06-15T18:36:43.992Z,100966.94
2023-06-15T18:39:11.734Z,100964.25
2023-06-15T18:41:39.370Z,100956.69
2023-06-15T18:44:06.931Z,100961.38
2023-06-15T18:46:34.195Z,100961.41
2023-06-15T18:49:01.639Z,100949.78
2023-06-15T18:51:29.001Z,100963.78
2023-06-15T18:53:56.288Z,100962.25
2023-06-15T18:56:23.894Z,100957.81
2023-06-15T18:58:51.455Z,100962.53
2023-06-15T19:01:18.711Z,100954.78
2023-06-15T19:03:46.094Z,100956.75
2023-06-15T19:06:13.382Z,100954.38
2023-06-15T19:08:40.680Z,100954.28
2023-06-15T19:11:09.959Z,100952.47
2023-06-15T19:13:37.937Z,100958.94
2023-06-15T19:16:06.224Z,100965.50
2023-06-15T19:18:33.599Z,100964.66
2023-06-15T19:21:03.276Z,100963.00
2023-06-15T19:23:30.377Z,100960.16
2023-06-15T19:25:57.607Z,100968.88
2023-06-15T19:28:25.506Z,100958.75
2023-06-15T19:30:52.627Z,100968.88
2023-06-15T19:33:19.964Z,100966.63
2023-06-15T19:35:47.122Z,100972.56
2023-06-15T19:38:14.297Z,100976.75
2023-06-15T19:40:41.487Z,100977.13
2023-06-15T19:43:09.747Z,100976.38
2023-06-15T19:45:36.887Z,100979.34
2023-06-15T19:48:04.636Z,100978.97
2023-06-15T19:50:32.041Z,100991.41
2023-06-15T19:52:59.224Z,100989.63
2023-06-15T19:55:26.408Z,100993.75
2023-06-15T19:57:53.522Z,100992.59
2023-06-15T20:00:21.853Z,100987.06
2023-06-15T20:02:50.126Z,100988.28
2023-06-15T20:05:17.309Z,100984.84
2023-06-15T20:07:44.419Z,100974.09
2023-06-15T20:10:12.286Z,100978.16
2023-06-15T20:12:39.439Z,100976.19
2023-06-15T20:15:07.555Z,100973.38
2023-06-15T20:17:34.741Z,100981.44
2023-06-15T20:20:01.966Z,100974.16
2023-06-15T20:22:29.128Z,100976.75
2023-06-15T20:24:57.568Z,100972.09
2023-06-15T20:27:24.715Z,100975.78
2023-06-15T20:29:51.805Z,100969.44
2023-06-15T20:32:21.800Z,100967.41
2023-06-15T20:34:48.893Z,100970.72
2023-06-15T20:37:16.032Z,100973.56
2023-06-15T20:39:46.323Z,100972.09
2023-06-15T20:42:15.883Z,100973.06
2023-06-15T20:44:43.039Z,100971.81
2023-06-15T20:47:10.686Z,100971.53
2023-06-15T20:49:38.210Z,100969.25
2023-06-15T20:52:05.730Z,100970.16
2023-06-15T20:54:35.233Z,100980.09
2023-06-15T20:57:02.378Z,100968.88
2023-06-15T20:59:29.636Z,100968.66
2023-06-15T21:04:25.632Z,100964.88
2023-06-15T21:06:55.863Z,100971.72
2023-06-15T21:09:25.470Z,100980.28
2023-06-15T21:11:52.716Z,100973.44
2023-06-15T21:14:19.900Z,100974.94
2023-06-15T21:16:47.042Z,100978.22
2023-06-15T21:19:14.319Z,100971.34
2023-06-15T21:21:43.027Z,100971.91
2023-06-15T21:24:13.962Z,100969.47
2023-06-15T21:26:41.158Z,100962.03
2023-06-15T21:29:08.379Z,100956.56
2023-06-15T21:31:39.269Z,100965.97
2023-06-15T21:34:06.549Z,100957.50
2023-06-15T21:36:33.713Z,100962.53
2023-06-15T21:39:00.953Z,100954.22
2023-06-15T21:41:31.217Z,100956.97
2023-06-15T21:43:59.086Z,100954.31
2023-06-15T21:46:26.955Z,100956.63
2023-06-15T21:48:54.247Z,100952.22
2023-06-15T21:51:21.550Z,100951.59
2023-06-15T21:53:48.857Z,100948.19
2023-06-15T21:56:16.136Z,100946.75
2023-06-15T21:58:43.536Z,100944.88
2023-06-15T22:01:11.160Z,100945.13
2023-06-15T22:03:40.091Z,100945.97
2023-06-15T22:06:10.609Z,100941.78
2023-06-15T22:08:37.763Z,100944.72
2023-06-15T22:11:05.278Z,100939.66
2023-06-15T22:13:35.502Z,100941.31
2023-06-15T22:16:02.840Z,100941.72
2023-06-15T22:18:30.880Z,100940.84
2023-06-15T22:20:58.763Z,100941.75
2023-06-15T22:23:27.815Z,100936.44
2023-06-15T22:25:56.778Z,100939.94
2023-06-15T22:28:25.365Z,100931.44
2023-06-15T22:30:53.037Z,100931.53
2023-06-15T22:33:24.452Z,100926.25
2023-06-15T22:35:52.020Z,100932.47
2023-06-15T22:38:19.191Z,100925.66
2023-06-15T22:40:46.581Z,100924.50
2023-06-15T22:43:13.957Z,100925.59
2023-06-15T22:45:41.203Z,100929.09
2023-06-15T22:48:08.423Z,100921.66
2023-06-15T22:50:35.643Z,100924.06
2023-06-15T22:53:03.332Z,100927.63
2023-06-15T22:55:31.302Z,100927.72
2023-06-15T22:57:58.867Z,100922.22
2023-06-15T23:00:26.172Z,100913.47
2023-06-15T23:05:23.811Z,100919.00
2023-06-15T23:07:52.493Z,100914.59
2023-06-15T23:10:21.783Z,100925.56
2023-06-15T23:12:51.461Z,100920.94
2023-06-15T23:15:22.894Z,100911.28
2023-06-15T23:17:53.376Z,100913.09
2023-06-15T23:20:21.292Z,100920.63
2023-06-15T23:22:52.991Z,100912.47
2023-06-15T23:25:23.989Z,100909.91
2023-06-15T23:27:55.134Z,100909.31
2023-06-15T23:30:25.093Z,100910.44
2023-06-15T23:32:52.290Z,100911.84
2023-06-15T23:35:19.468Z,100914.09
2023-06-15T23:37:46.606Z,100913.03
2023-06-15T23:40:13.909Z,100903.84
2023-06-15T23:42:41.042Z,100907.59
2023-06-15T23:45:08.736Z,100904.28
2023-06-15T23:47:35.886Z,100897.25
2023-06-15T23:50:06.488Z,100895.41
2023-06-15T23:52:33.592Z,100904.66
2023-06-15T23:55:00.702Z,100901.44
2023-06-15T23:57:27.837Z,100892.44
2023-06-15T23:59:54.976Z,100892.91
